Spring Grove, Pennsylvania
Current Conditions -  °F | °C
As of 9:53 AM on Wednesday 26 Nov 2014 (Local Time) from KTHV Reporting Station
Light Snow Light Snow  
Wind Chill: 33°   Ceiling: 300
Heat Index: 33°   Visibility: 0.75mi
Dew Point: 32°   Wind: 3mph
Humidity: 96%   Direction: 50°NE
Pressure: 30.09"   Gusts: NA
Location:  39.87°N, 76.87°W
Report Text: KTHV 261453Z AUTO 05003KT 3/4SM -SN BR OVC003 01/00 A3009 RMK AO2 RAE03SNB03 SLP197 P0003 60019 T00060000 56001
Loading
Personal Weather Stations






























Interactive Weather Map New forecast layout! Learn more

10-Day Weather Forecast

Advertisements
Track Severe Weather on mobile